createdAt,value
2019-01-29T00:29:56.291Z,39.80
2019-01-29T00:32:37.405Z,41.73
2019-01-29T00:35:18.499Z,38.87
2019-01-29T00:37:59.441Z,39.67
2019-01-29T00:40:40.375Z,42.20
2019-01-29T00:43:21.095Z,43.17
2019-01-29T00:46:02.345Z,46.13
2019-01-29T00:48:42.236Z,41.07
2019-01-29T00:54:22.900Z,44.53
2019-01-29T00:57:04.191Z,43.17
2019-01-29T00:59:45.616Z,40.13
2019-01-29T01:02:27.113Z,41.90
2019-01-29T01:05:08.522Z,41.60
2019-01-29T01:07:49.719Z,40.83
2019-01-29T01:10:30.734Z,43.07
2019-01-29T01:13:11.415Z,42.33
2019-01-29T01:15:52.133Z,42.87
2019-01-29T01:18:33.004Z,42.17
2019-01-29T01:21:13.989Z,43.67
2019-01-29T01:23:55.043Z,43.50
2019-01-29T01:26:35.763Z,44.63
2019-01-29T01:29:17.137Z,41.63
2019-01-29T01:31:57.779Z,41.27
2019-01-29T01:34:39.343Z,43.47
2019-01-29T01:37:20.514Z,44.40
2019-01-29T01:40:00.275Z,44.77
2019-01-29T01:42:41.639Z,52.43
2019-01-29T01:45:22.191Z,48.80
2019-01-29T01:48:03.581Z,52.80
2019-01-29T01:50:45.038Z,47.30
2019-01-29T01:53:25.898Z,51.77
2019-01-29T01:56:06.040Z,53.10
2019-01-29T01:58:47.376Z,48.50
2019-01-29T02:01:28.195Z,48.67
2019-01-29T02:04:09.424Z,51.73
2019-01-29T02:06:50.245Z,46.77
2019-01-29T02:09:31.741Z,48.20
2019-01-29T02:12:12.527Z,47.90
2019-01-29T02:14:53.784Z,48.87
2019-01-29T02:17:35.064Z,45.43
2019-01-29T02:20:16.302Z,48.63
2019-01-29T02:22:56.015Z,47.07
2019-01-29T02:25:37.101Z,47.07
2019-01-29T02:28:17.998Z,43.80
2019-01-29T02:30:58.635Z,40.23
2019-01-29T02:33:39.495Z,44.17
2019-01-29T02:36:20.719Z,42.40
2019-01-29T02:39:01.920Z,42.50
2019-01-29T02:41:43.295Z,41.87
2019-01-29T02:44:22.864Z,39.60
2019-01-29T02:47:03.447Z,38.97
2019-01-29T02:49:44.490Z,39.90
2019-01-29T02:52:25.917Z,38.17
2019-01-29T02:55:06.879Z,40.27
2019-01-29T02:57:47.855Z,41.03
2019-01-29T03:00:29.193Z,39.27
2019-01-29T03:03:10.050Z,38.60
2019-01-29T03:05:51.542Z,40.63
2019-01-29T03:08:32.582Z,38.07
2019-01-29T03:11:13.771Z,36.63
2019-01-29T03:13:55.012Z,36.87
2019-01-29T03:16:36.479Z,36.30
2019-01-29T03:19:17.713Z,37.30
2019-01-29T03:21:58.363Z,34.77
2019-01-29T03:24:38.992Z,35.07
2019-01-29T03:27:19.738Z,36.30
2019-01-29T03:30:01.215Z,31.67
2019-01-29T03:32:41.864Z,33.33
2019-01-29T03:35:23.284Z,34.30
2019-01-29T03:38:04.071Z,33.27
2019-01-29T03:40:44.784Z,33.03
2019-01-29T03:43:25.431Z,34.90
2019-01-29T03:46:06.190Z,30.87
2019-01-29T03:48:46.878Z,35.43
2019-01-29T03:51:28.389Z,32.60
2019-01-29T03:54:09.812Z,36.57
2019-01-29T03:56:51.411Z,30.10
2019-01-29T03:59:32.970Z,31.83
2019-01-29T04:02:12.782Z,31.77
2019-01-29T04:08:01.525Z,28.63
2019-01-29T04:10:42.738Z,31.80
2019-01-29T04:13:23.948Z,32.00
2019-01-29T04:16:05.341Z,32.90
2019-01-29T04:18:46.037Z,30.07
2019-01-29T04:21:25.742Z,30.17
2019-01-29T04:24:06.633Z,31.20
2019-01-29T04:26:47.981Z,31.07
2019-01-29T04:29:29.199Z,25.53
2019-01-29T04:32:10.295Z,27.17
2019-01-29T04:34:51.129Z,28.03
2019-01-29T04:37:30.629Z,26.40
2019-01-29T04:40:11.392Z,25.67
2019-01-29T04:42:52.828Z,26.07
2019-01-29T04:45:34.198Z,25.93
2019-01-29T04:48:13.721Z,23.83
2019-01-29T04:50:54.539Z,21.80
2019-01-29T04:53:35.328Z,23.50
2019-01-29T04:56:16.883Z,22.97
2019-01-29T04:58:58.468Z,23.63
2019-01-29T05:01:39.927Z,21.23
2019-01-29T05:04:21.255Z,24.80
2019-01-29T05:07:02.441Z,23.97
2019-01-29T05:09:43.365Z,26.27
2019-01-29T05:12:24.667Z,25.30
2019-01-29T05:15:05.578Z,25.63
2019-01-29T05:17:46.870Z,23.80
2019-01-29T05:20:28.295Z,24.73
2019-01-29T05:23:09.350Z,24.70
2019-01-29T05:25:50.094Z,25.70
2019-01-29T05:28:31.033Z,23.37
2019-01-29T05:31:12.523Z,24.93
2019-01-29T05:33:54.097Z,22.53
2019-01-29T05:36:35.151Z,23.00
2019-01-29T05:39:16.324Z,21.87
2019-01-29T05:41:57.124Z,21.57
2019-01-29T05:44:38.051Z,22.07
2019-01-29T05:47:19.546Z,22.97
2019-01-29T05:50:00.294Z,20.37
2019-01-29T05:52:41.382Z,20.00
2019-01-29T05:55:22.714Z,19.67
2019-01-29T05:58:03.864Z,20.13
2019-01-29T06:00:44.083Z,19.13
2019-01-29T06:03:32.487Z,18.80
2019-01-29T06:06:13.304Z,20.20
2019-01-29T06:08:54.909Z,20.53
2019-01-29T08:55:15.756Z,8.30
2019-01-29T08:57:55.708Z,9.27
2019-01-29T09:00:35.922Z,9.47
2019-01-29T09:03:15.909Z,11.70
2019-01-29T09:05:55.980Z,9.53
2019-01-29T09:08:34.554Z,11.47
2019-01-29T09:20:11.106Z,10.00
2019-01-29T09:22:51.230Z,9.90
2019-01-29T09:25:29.871Z,12.30
2019-01-29T09:28:11.381Z,10.80
2019-01-29T09:30:52.922Z,10.33
2019-01-29T09:33:34.244Z,9.30
2019-01-29T09:36:15.321Z,10.47
2019-01-29T09:38:56.728Z,10.63
2019-01-29T10:17:22.188Z,11.07
2019-01-29T10:20:03.494Z,12.70
2019-01-29T10:22:44.368Z,10.70
2019-01-29T10:25:25.453Z,11.47
2019-01-29T10:28:05.645Z,10.33
2019-01-29T10:33:58.960Z,10.03
2019-01-29T10:36:40.371Z,10.10
2019-01-29T10:39:21.413Z,11.63
2019-01-29T10:42:02.799Z,12.70
2019-01-29T10:44:43.478Z,10.83
2019-01-29T10:47:21.976Z,11.77
2019-01-29T10:50:03.636Z,12.30
2019-01-29T10:52:44.394Z,11.03
2019-01-29T10:55:25.685Z,11.83
2019-01-29T10:58:06.886Z,11.07
2019-01-29T11:00:46.583Z,14.03
2019-01-29T11:03:35.175Z,12.83
2019-01-29T11:06:16.101Z,12.77
2019-01-29T11:08:56.024Z,14.10
2019-01-29T11:11:36.281Z,15.73
2019-01-29T11:14:17.538Z,11.23
2019-01-29T11:16:56.025Z,11.17
2019-01-29T11:19:36.331Z,12.87
2019-01-29T11:22:16.361Z,13.53
2019-01-29T11:24:55.262Z,12.30
2019-01-29T13:05:40.637Z,11.10
2019-01-29T13:08:19.065Z,11.37
2019-01-29T14:57:56.198Z,3.83
2019-01-29T15:24:35.942Z,6.20
2019-01-29T15:27:17.319Z,5.33
2019-01-29T15:29:58.381Z,3.70
2019-01-29T15:32:38.910Z,5.50
2019-01-29T15:35:19.887Z,5.07
2019-01-29T15:38:00.682Z,7.50
2019-01-29T15:40:41.948Z,4.03
2019-01-29T15:43:22.648Z,4.20
2019-01-29T15:46:03.793Z,5.80
2019-01-29T15:48:44.822Z,5.27
2019-01-29T15:51:24.278Z,4.60
2019-01-29T15:57:14.219Z,6.43
2019-01-29T15:59:54.982Z,6.30
2019-01-29T16:02:36.071Z,6.87
2019-01-29T16:05:17.481Z,7.50
2019-01-29T16:07:58.892Z,7.60
2019-01-29T16:10:40.071Z,6.87
2019-01-29T16:13:20.955Z,10.63
2019-01-29T16:16:01.898Z,7.53
2019-01-29T16:18:43.515Z,10.67
2019-01-29T16:21:24.880Z,10.23
2019-01-29T16:24:05.852Z,9.43
2019-01-29T16:26:46.515Z,10.50
2019-01-29T16:29:27.867Z,9.80
2019-01-29T16:32:09.321Z,9.43
2019-01-29T16:34:50.670Z,11.73
2019-01-29T16:37:31.873Z,10.67
2019-01-29T16:40:12.478Z,9.00
2019-01-29T16:42:52.449Z,9.90
2019-01-29T16:45:33.819Z,14.20
2019-01-29T16:48:15.115Z,11.33
2019-01-29T16:50:55.623Z,11.27
2019-01-29T16:53:35.817Z,12.17
2019-01-29T16:56:15.912Z,10.53
2019-01-29T16:58:56.227Z,12.57
2019-01-29T17:01:36.343Z,12.33
2019-01-29T17:04:16.624Z,17.13
2019-01-29T17:06:56.976Z,13.57
2019-01-29T17:09:35.368Z,15.03
2019-01-29T20:25:46.219Z,10.67
2019-01-29T20:28:27.700Z,7.87
2019-01-29T20:31:08.741Z,9.10
2019-01-29T20:33:50.338Z,7.57
2019-01-29T20:36:31.747Z,6.23
2019-01-29T20:39:13.029Z,8.53
2019-01-29T20:41:54.259Z,6.70
2019-01-29T20:44:35.778Z,8.23
2019-01-29T20:47:16.886Z,7.27
2019-01-29T20:49:58.353Z,9.53
2019-01-29T20:52:39.899Z,7.43
2019-01-29T20:55:20.682Z,6.60
2019-01-29T20:58:02.211Z,7.40
2019-01-29T21:00:43.329Z,7.90
2019-01-29T21:03:24.646Z,10.20
2019-01-29T21:06:05.359Z,7.73
2019-01-29T21:08:46.314Z,8.27
2019-01-29T21:11:27.384Z,9.63
2019-01-29T21:14:08.583Z,9.33
2019-01-29T21:16:48.626Z,7.93
2019-01-29T21:19:29.381Z,9.10
2019-01-29T21:22:10.837Z,8.43
2019-01-29T21:24:51.553Z,8.07
2019-01-29T21:27:32.234Z,7.50
2019-01-29T21:30:13.318Z,8.97
2019-01-29T21:32:51.746Z,10.80
2019-01-29T21:53:23.026Z,11.03
2019-01-29T21:56:04.230Z,10.40
2019-01-29T21:58:44.936Z,10.10
2019-01-29T22:01:26.179Z,11.47
2019-01-29T22:04:07.650Z,11.10
2019-01-29T22:06:47.221Z,14.00
2019-01-29T22:39:13.925Z,20.10
2019-01-29T22:41:55.457Z,20.93
2019-01-29T22:44:36.507Z,17.30
2019-01-29T22:47:17.142Z,21.13
2019-01-29T22:49:58.039Z,18.33
2019-01-29T22:52:39.267Z,18.80
2019-01-29T22:55:20.017Z,18.07
2019-01-29T22:58:01.098Z,19.53
2019-01-29T23:03:41.562Z,19.67
2019-01-29T23:06:22.452Z,19.80
2019-01-29T23:09:03.284Z,19.77
2019-01-29T23:11:51.716Z,19.13
2019-01-29T23:14:32.631Z,20.03
2019-01-29T23:17:13.785Z,18.60
2019-01-29T23:19:54.856Z,22.00
2019-01-29T23:22:36.131Z,19.50
2019-01-29T23:25:17.112Z,21.67
2019-01-29T23:27:58.710Z,22.30
2019-01-29T23:30:40.171Z,19.73
2019-01-29T23:33:21.536Z,20.03
2019-01-29T23:36:03.092Z,21.27
2019-01-29T23:38:44.661Z,20.93
2019-01-29T23:41:26.107Z,22.83
2019-01-29T23:44:07.620Z,21.17
2019-01-29T23:46:49.081Z,22.27
2019-01-29T23:49:29.666Z,20.03
2019-01-29T23:52:11.025Z,19.00
2019-01-29T23:54:51.940Z,18.43
2019-01-29T23:57:33.371Z,16.50
